Time;durP1;ratioP1;P1;durP2;ratioP2;P2;SDS_P1;SDS_P2;PMS_P1;PMS_P2;Temp;Humidity;BMP_temperature;BMP_pressure;BME280_temperature;BME280_humidity;BME280_pressure;Samples;Min_cycle;Max_cycle;Signal;HPM_P1;HPM_P2
2023/05/30 00:01:50;;;;;;;;;4.00;4.00;;;;;21.86;39.28;101307.21;110152;1265;23704;-38
2023/05/30 00:04:17;;;;;;;;;4.00;4.00;;;;;21.86;39.22;101307.55;110193;1265;22850;-38
2023/05/30 00:06:45;;;;;;;;;2.00;2.00;;;;;21.86;39.06;101306.70;110241;1265;19248;-40
2023/05/30 00:09:12;;;;;;;;;4.00;2.00;;;;;21.84;39.10;101307.80;110199;1251;21547;-38
2023/05/30 00:11:40;;;;;;;;;4.00;2.00;;;;;21.84;39.26;101307.59;110161;1257;23823;-38
2023/05/30 00:14:08;;;;;;;;;4.00;4.00;;;;;21.83;39.04;101308.25;110179;1250;21093;-37
2023/05/30 00:16:35;;;;;;;;;2.00;2.00;;;;;21.84;39.17;101307.01;110078;1257;24820;-40
2023/05/30 00:19:04;;;;;;;;;1.00;1.00;;;;;21.84;39.29;101306.54;110202;1265;19174;-39
2023/05/30 00:21:32;;;;;;;;;4.33;3.33;;;;;21.84;39.32;101304.73;110255;1257;19327;-39
2023/05/30 00:24:00;;;;;;;;;2.00;2.00;;;;;21.83;39.26;101300.67;110244;1251;21546;-36
2023/05/30 00:26:28;;;;;;;;;2.00;2.00;;;;;21.82;39.11;101302.40;110179;1265;22989;-38
2023/05/30 00:28:55;;;;;;;;;2.00;2.00;;;;;21.81;39.15;101301.73;110203;1265;19356;-39
2023/05/30 00:31:23;;;;;;;;;3.00;3.00;;;;;21.81;39.22;101308.09;110191;1251;22701;-38
2023/05/30 00:33:50;;;;;;;;;1.50;1.50;;;;;21.81;39.20;101307.75;110181;1251;23551;-38
2023/05/30 00:36:19;;;;;;;;;2.00;2.00;;;;;21.82;39.21;101309.32;110186;1265;20926;-38
2023/05/30 00:38:46;;;;;;;;;2.00;2.00;;;;;21.81;39.17;101307.45;110178;1251;23131;-38
2023/05/30 00:41:14;;;;;;;;;4.00;3.00;;;;;21.80;39.17;101309.66;110178;1251;19642;-37
2023/05/30 00:43:41;;;;;;;;;2.00;2.00;;;;;21.80;39.21;101313.73;110200;1251;20702;-39
2023/05/30 00:46:10;;;;;;;;;4.00;4.00;;;;;21.80;39.26;101318.77;109775;1265;568675;-37
2023/05/30 00:48:37;;;;;;;;;4.00;4.00;;;;;21.80;39.06;101313.89;110176;1265;22719;-37
2023/05/30 00:51:05;;;;;;;;;5.00;4.00;;;;;21.80;39.23;101314.98;110192;1265;20686;-39
2023/05/30 00:53:32;;;;;;;;;2.00;2.00;;;;;21.79;39.15;101316.90;110199;1265;23757;-38
2023/05/30 00:56:00;;;;;;;;;5.00;4.00;;;;;21.78;39.20;101316.96;110285;1265;19728;-38
2023/05/30 00:58:27;;;;;;;;;3.00;3.00;;;;;21.78;39.25;101317.71;110247;1265;20671;-39
2023/05/30 01:00:54;;;;;;;;;2.00;2.00;;;;;21.78;39.22;101318.09;110179;1265;20292;-38
2023/05/30 01:03:24;;;;;;;;;2.00;2.00;;;;;21.77;39.08;101316.74;110188;1265;23611;-39
2023/05/30 01:05:52;;;;;;;;;4.00;4.00;;;;;21.76;39.19;101320.85;110210;1250;21768;-37
2023/05/30 01:08:19;;;;;;;;;5.00;4.00;;;;;21.75;39.14;101323.50;110190;1265;20132;-38
2023/05/30 01:10:46;;;;;;;;;2.00;2.00;;;;;21.75;39.09;101323.91;110193;1251;19886;-38
2023/05/30 01:13:14;;;;;;;;;4.00;4.00;;;;;21.76;39.24;101324.50;110215;1265;20634;-38
2023/05/30 01:15:42;;;;;;;;;4.00;4.00;;;;;21.75;39.14;101324.05;110202;1265;20318;-38
2023/05/30 01:18:09;;;;;;;;;4.00;4.00;;;;;21.74;39.15;101323.64;110214;1265;19090;-38
2023/05/30 01:20:36;;;;;;;;;7.00;5.00;;;;;21.74;39.41;101325.90;110180;1251;20715;-38
2023/05/30 01:23:04;;;;;;;;;5.00;4.00;;;;;21.74;39.27;101326.54;110198;1265;20120;-38
2023/05/30 01:25:32;;;;;;;;;7.00;5.00;;;;;21.72;39.31;101324.23;110208;1251;19742;-39
2023/05/30 01:27:59;;;;;;;;;2.00;2.00;;;;;21.72;39.30;101325.49;110189;1265;20818;-38
2023/05/30 01:30:27;;;;;;;;;5.00;4.00;;;;;21.72;39.17;101323.85;110179;1265;20879;-38
2023/05/30 01:32:54;;;;;;;;;4.33;4.33;;;;;21.71;39.13;101325.60;110217;1251;19618;-38
2023/05/30 01:35:22;;;;;;;;;4.00;4.00;;;;;21.72;39.26;101327.74;110172;1265;23129;-38
2023/05/30 01:37:49;;;;;;;;;2.00;2.00;;;;;21.72;39.26;101328.30;110186;1266;21433;-38
2023/05/30 01:40:17;;;;;;;;;5.00;4.00;;;;;21.70;39.38;101325.38;110197;1251;19682;-38
2023/05/30 01:42:44;;;;;;;;;2.00;2.00;;;;;21.69;39.24;101320.57;110170;1251;23433;-38
2023/05/30 01:45:12;;;;;;;;;4.00;2.00;;;;;21.69;39.31;101322.58;110170;1250;21497;-39
2023/05/30 01:47:39;;;;;;;;;4.00;4.00;;;;;21.69;39.10;101324.02;110186;1265;19559;-39
2023/05/30 01:50:07;;;;;;;;;5.00;5.00;;;;;21.69;39.20;101323.67;110168;1265;23975;-39
2023/05/30 01:52:34;;;;;;;;;4.00;4.00;;;;;21.68;39.20;101326.33;110185;1249;21453;-37
2023/05/30 01:55:03;;;;;;;;;2.00;2.00;;;;;21.68;39.32;101327.02;110163;1265;23457;-38
2023/05/30 01:57:30;;;;;;;;;4.00;4.00;;;;;21.67;39.37;101326.81;110305;1265;20844;-39
2023/05/30 01:59:58;;;;;;;;;5.00;5.00;;;;;21.67;39.19;101328.79;110162;1251;23574;-38
2023/05/30 02:02:25;;;;;;;;;2.00;2.00;;;;;21.66;39.28;101331.25;110147;1265;23684;-38
2023/05/30 02:04:53;;;;;;;;;2.00;2.00;;;;;21.66;39.23;101333.47;110209;1265;20973;-38
2023/05/30 02:07:20;;;;;;;;;2.00;2.00;;;;;21.65;39.31;101340.66;110187;1265;20063;-38
2023/05/30 02:09:48;;;;;;;;;4.50;4.50;;;;;21.64;39.21;101333.86;110207;1265;19591;-38
2023/05/30 02:12:15;;;;;;;;;3.00;3.00;;;;;21.64;39.27;101335.88;110190;1250;22225;-38
2023/05/30 02:14:43;;;;;;;;;5.00;5.00;;;;;21.65;39.24;101339.63;110167;1260;23767;-39
2023/05/30 02:17:11;;;;;;;;;5.00;4.00;;;;;21.63;39.16;101338.57;110182;1265;20770;-39
2023/05/30 02:19:38;;;;;;;;;5.00;4.00;;;;;21.63;39.21;101339.23;110197;1265;21046;-39
2023/05/30 02:22:06;;;;;;;;;4.50;4.50;;;;;21.63;39.23;101346.72;110180;1265;20138;-42
2023/05/30 02:24:34;;;;;;;;;4.00;3.00;;;;;21.63;39.05;101346.59;110198;1251;23442;-39
2023/05/30 02:27:01;;;;;;;;;5.00;5.00;;;;;21.62;39.19;101346.83;110181;1266;23266;-40
2023/05/30 02:29:29;;;;;;;;;5.00;4.00;;;;;21.60;39.14;101347.91;110175;1265;21515;-39
2023/05/30 02:31:56;;;;;;;;;5.00;5.00;;;;;21.60;39.12;101349.04;110177;1251;19663;-39
2023/05/30 02:34:24;;;;;;;;;4.50;4.00;;;;;21.59;39.10;101346.73;110225;1265;19672;-39
2023/05/30 02:36:51;;;;;;;;;5.00;5.00;;;;;21.59;39.16;101345.80;110175;1251;21553;-37
2023/05/30 02:39:18;;;;;;;;;5.00;5.00;;;;;21.58;39.26;101343.58;110204;1265;19430;-40
2023/05/30 02:41:46;;;;;;;;;5.00;5.00;;;;;21.58;39.12;101344.83;110206;1265;19687;-40
2023/05/30 02:44:13;;;;;;;;;5.00;4.00;;;;;21.58;39.09;101348.33;110184;1265;21421;-38
2023/05/30 02:46:41;;;;;;;;;5.00;5.00;;;;;21.57;39.24;101347.84;110184;1265;23411;-40
2023/05/30 02:49:08;;;;;;;;;4.00;4.00;;;;;21.56;39.25;101348.48;110159;1265;20697;-39
2023/05/30 02:51:36;;;;;;;;;5.00;5.00;;;;;21.56;39.22;101351.08;110191;1251;22482;-40
2023/05/30 02:54:03;;;;;;;;;8.00;5.00;;;;;21.56;39.12;101347.21;110198;1265;19579;-40
2023/05/30 02:56:31;;;;;;;;;6.00;6.00;;;;;21.56;39.41;101351.27;110200;1251;20793;-38
2023/05/30 02:58:59;;;;;;;;;5.00;5.00;;;;;21.54;39.30;101350.97;110194;1251;23385;-37
2023/05/30 03:01:26;;;;;;;;;7.00;7.00;;;;;21.53;39.55;101353.98;110174;1265;22981;-39
2023/05/30 03:03:54;;;;;;;;;7.50;6.00;;;;;21.53;39.34;101352.19;110196;1266;20678;-38
2023/05/30 03:06:21;;;;;;;;;4.00;4.00;;;;;21.53;39.41;101353.06;110188;1265;21285;-39
2023/05/30 03:08:49;;;;;;;;;7.00;5.00;;;;;21.53;39.50;101355.79;110149;1265;19221;-39
2023/05/30 03:11:16;;;;;;;;;5.00;5.00;;;;;21.53;39.40;101357.56;110150;1265;22971;-40
2023/05/30 03:13:46;;;;;;;;;5.00;4.67;;;;;21.53;39.48;101353.41;110140;1251;21713;-39
2023/05/30 03:16:13;;;;;;;;;5.00;5.00;;;;;21.53;39.43;101357.25;110281;1265;23442;-39
2023/05/30 03:18:41;;;;;;;;;8.00;7.00;;;;;21.53;39.39;101358.82;110250;1251;20788;-39
2023/05/30 03:21:08;;;;;;;;;7.00;5.67;;;;;21.53;39.37;101359.80;110251;1265;19987;-39
2023/05/30 03:23:36;;;;;;;;;7.00;7.00;;;;;21.52;39.51;101358.74;110166;1265;23042;-39
2023/05/30 03:26:04;;;;;;;;;8.00;8.00;;;;;21.52;39.48;101357.70;110167;1265;19364;-39
2023/05/30 03:28:31;;;;;;;;;5.00;5.00;;;;;21.51;39.62;101363.77;110202;1250;21711;-41
2023/05/30 03:30:59;;;;;;;;;7.00;7.00;;;;;21.51;39.53;101367.59;110203;1265;23606;-39
2023/05/30 03:33:28;;;;;;;;;4.00;4.00;;;;;21.52;39.59;101369.74;110180;1251;23397;-40
2023/05/30 03:35:55;;;;;;;;;5.00;4.00;;;;;21.52;39.39;101375.94;110219;1251;22930;-38
2023/05/30 03:38:23;;;;;;;;;8.00;7.00;;;;;21.52;39.54;101376.06;110290;1265;19369;-37
2023/05/30 03:40:50;;;;;;;;;10.00;7.00;;;;;21.52;39.50;101376.47;110229;1265;20844;-37
2023/05/30 03:43:18;;;;;;;;;4.00;4.00;;;;;21.52;39.50;101381.20;110168;1265;22170;-38
2023/05/30 03:45:45;;;;;;;;;5.00;5.00;;;;;21.52;39.43;101386.08;110216;1257;19058;-38
2023/05/30 03:48:12;;;;;;;;;4.50;4.50;;;;;21.51;39.46;101387.27;110185;1251;19550;-37
2023/05/30 03:50:40;;;;;;;;;4.50;4.50;;;;;21.51;39.59;101387.78;110151;1265;21801;-39
2023/05/30 03:53:07;;;;;;;;;8.00;6.00;;;;;21.52;39.62;101393.58;110193;1251;23547;-38
2023/05/30 03:55:35;;;;;;;;;4.00;4.00;;;;;21.50;39.35;101391.33;110165;1265;19520;-40
2023/05/30 03:58:02;;;;;;;;;5.00;5.00;;;;;21.50;39.50;101390.81;110186;1265;20160;-38
2023/05/30 04:00:30;;;;;;;;;7.00;5.00;;;;;21.50;39.37;101391.90;110192;1265;22962;-38
2023/05/30 04:02:59;;;;;;;;;7.00;5.00;;;;;21.50;39.45;101397.73;110182;1265;23021;-38
2023/05/30 04:05:26;;;;;;;;;10.00;7.00;;;;;21.50;39.57;101402.44;110213;1250;20143;-40
2023/05/30 04:07:54;;;;;;;;;7.00;7.00;;;;;21.49;39.45;101403.64;110154;1265;19821;-38
2023/05/30 04:10:21;;;;;;;;;5.00;5.00;;;;;21.49;39.68;101401.99;110207;1251;20730;-38
2023/05/30 04:12:49;;;;;;;;;8.00;7.00;;;;;21.50;39.49;101399.78;110246;1251;22951;-39
2023/05/30 04:15:16;;;;;;;;;6.00;6.00;;;;;21.50;39.54;101404.11;110226;1251;19614;-41
2023/05/30 04:17:44;;;;;;;;;7.00;7.00;;;;;21.49;39.58;101409.44;110175;1251;20966;-39
2023/05/30 04:20:12;;;;;;;;;7.00;7.00;;;;;21.48;39.86;101415.73;110099;1265;20134;-39
2023/05/30 04:22:39;;;;;;;;;7.50;7.00;;;;;21.49;39.75;101417.38;110142;1266;23115;-40
2023/05/30 04:25:07;;;;;;;;;5.00;5.00;;;;;21.50;39.84;101422.11;110178;1265;20728;-39
2023/05/30 04:27:34;;;;;;;;;8.00;7.00;;;;;21.50;39.85;101421.23;110153;1249;21523;-39
2023/05/30 04:30:03;;;;;;;;;7.50;7.00;;;;;21.50;40.03;101422.48;110243;1265;19792;-40
2023/05/30 04:32:33;;;;;;;;;7.00;7.00;;;;;21.52;40.09;101426.30;110162;1265;22619;-38
2023/05/30 04:35:02;;;;;;;;;8.00;7.00;;;;;21.51;40.25;101430.33;110163;1265;20391;-40
2023/05/30 04:37:29;;;;;;;;;7.50;7.00;;;;;21.51;40.32;101434.53;110183;1265;19546;-38
2023/05/30 04:39:57;;;;;;;;;7.00;7.00;;;;;21.52;40.32;101435.39;110178;1265;19444;-38
2023/05/30 04:42:26;;;;;;;;;11.00;11.00;;;;;21.48;40.43;101432.00;110265;1265;23257;-39
2023/05/30 04:44:54;;;;;;;;;12.00;12.00;;;;;21.33;40.82;101435.22;110220;1249;20611;-39
2023/05/30 04:47:24;;;;;;;;;13.33;11.00;;;;;21.23;41.31;101437.89;110106;1257;20837;-38
2023/05/30 04:49:53;;;;;;;;;12.00;12.00;;;;;20.68;42.60;101432.96;110119;1265;23505;-39
2023/05/30 04:52:21;;;;;;;;;10.00;10.00;;;;;20.33;43.46;101435.35;110096;1260;19148;-39
2023/05/30 04:54:48;;;;;;;;;11.00;10.00;;;;;20.33;44.08;101434.98;110153;1251;20877;-39
2023/05/30 04:57:15;;;;;;;;;11.00;10.00;;;;;20.52;44.15;101435.89;110141;1251;23108;-38
2023/05/30 04:59:43;;;;;;;;;10.00;10.00;;;;;20.79;44.11;101434.91;110126;1251;20374;-38
2023/05/30 05:02:10;;;;;;;;;8.00;8.00;;;;;21.04;43.93;101437.53;110191;1265;19532;-37
2023/05/30 05:04:38;;;;;;;;;8.00;7.50;;;;;21.21;43.65;101440.11;110216;1265;20148;-38
2023/05/30 05:07:05;;;;;;;;;15.00;13.00;;;;;21.34;43.42;101439.45;110198;1251;19821;-38
2023/05/30 05:09:33;;;;;;;;;47.00;46.00;;;;;21.42;43.69;101444.28;110153;1265;21244;-38
2023/05/30 05:12:03;;;;;;;;;67.33;57.00;;;;;21.48;43.59;101445.84;110193;1251;21482;-37
2023/05/30 05:14:30;;;;;;;;;55.00;47.00;;;;;21.52;43.86;101446.44;110210;1265;23105;-38
2023/05/30 05:16:58;;;;;;;;;;;;;;;21.60;43.70;101442.73;110180;1265;23112;-38
2023/05/30 05:19:25;;;;;;;;;23.00;23.00;;;;;21.63;43.61;101443.46;110217;1251;21739;-39
2023/05/30 05:21:53;;;;;;;;;15.50;12.50;;;;;21.65;43.65;101448.52;110224;1250;23135;-37
2023/05/30 05:24:20;;;;;;;;;9.50;9.00;;;;;21.23;43.61;101454.63;110256;1265;20776;-39
2023/05/30 05:26:47;;;;;;;;;8.00;8.00;;;;;20.57;45.03;101454.46;110220;1265;20323;-38
2023/05/30 05:29:15;;;;;;;;;8.00;8.00;;;;;20.44;45.30;101455.98;110230;1265;19512;-37
2023/05/30 05:31:42;;;;;;;;;7.33;7.00;;;;;20.48;45.69;101457.38;110099;1265;20679;-37
2023/05/30 05:34:10;;;;;;;;;7.00;6.00;;;;;20.91;44.85;101457.64;110157;1266;23198;-38
2023/05/30 05:36:37;;;;;;;;;7.00;7.00;;;;;21.16;44.73;101461.38;110202;1249;20782;-37
2023/05/30 05:39:05;;;;;;;;;6.00;6.00;;;;;21.31;44.39;101461.41;110213;1265;19374;-38
2023/05/30 05:41:32;;;;;;;;;4.50;4.50;;;;;21.41;44.23;101462.79;110189;1251;23079;-38
2023/05/30 05:44:00;;;;;;;;;7.00;4.00;;;;;21.47;43.81;101468.06;110148;1265;19071;-37
2023/05/30 05:46:27;;;;;;;;;5.00;5.00;;;;;21.51;43.76;101468.21;110180;1265;21819;-37
2023/05/30 05:48:55;;;;;;;;;4.67;4.67;;;;;21.54;43.62;101474.79;110205;1265;21806;-38
2023/05/30 05:51:23;;;;;;;;;8.00;7.00;;;;;21.58;43.33;101473.83;110264;1251;19722;-36
2023/05/30 05:53:50;;;;;;;;;7.00;7.00;;;;;21.40;43.16;101474.29;110233;1261;19725;-38
2023/05/30 05:56:17;;;;;;;;;8.00;7.00;;;;;21.11;43.66;101475.88;110179;1265;22732;-38
2023/05/30 05:58:45;;;;;;;;;10.00;9.00;;;;;20.94;43.74;101483.31;110230;1265;23477;-38
2023/05/30 06:01:12;;;;;;;;;7.00;7.00;;;;;20.63;44.34;101483.09;110238;1265;19398;-38
2023/05/30 06:03:40;;;;;;;;;7.67;7.00;;;;;20.73;44.51;101486.75;110224;1265;20335;-38
2023/05/30 06:06:07;;;;;;;;;7.00;5.00;;;;;20.87;44.10;101490.73;110217;1250;19530;-38
2023/05/30 06:08:35;;;;;;;;;7.00;7.00;;;;;20.83;44.03;101488.31;110157;1250;22922;-40
2023/05/30 06:11:02;;;;;;;;;7.00;5.00;;;;;20.62;44.32;101484.66;110195;1257;21497;-38
2023/05/30 06:13:30;;;;;;;;;7.50;7.00;;;;;20.66;44.21;101489.75;110230;1265;19147;-38
2023/05/30 06:15:57;;;;;;;;;5.00;5.00;;;;;20.74;43.76;101488.96;110187;1265;22640;-38
2023/05/30 06:18:25;;;;;;;;;7.00;5.00;;;;;20.82;43.52;101491.43;110186;1265;21498;-38
2023/05/30 06:20:52;;;;;;;;;7.00;5.00;;;;;20.76;43.47;101487.58;110214;1250;20802;-41
2023/05/30 06:23:21;;;;;;;;;7.00;7.00;;;;;20.75;43.84;101488.70;110145;1251;23118;-38
2023/05/30 06:25:48;;;;;;;;;8.00;7.00;;;;;20.79;43.59;101491.65;110174;1251;22946;-39
2023/05/30 06:28:16;;;;;;;;;13.00;11.00;;;;;20.71;43.47;101490.98;110146;1251;19841;-39
2023/05/30 06:30:43;;;;;;;;;11.00;8.00;;;;;20.78;43.49;101495.47;110197;1251;20852;-39
2023/05/30 06:33:11;;;;;;;;;5.00;5.00;;;;;20.91;43.05;101493.08;110050;1265;23141;-38
2023/05/30 06:35:39;;;;;;;;;8.00;7.00;;;;;20.82;42.84;101496.92;110081;1265;19316;-37
2023/05/30 06:38:06;;;;;;;;;5.00;5.00;;;;;20.83;42.40;101494.45;110138;1265;20736;-39
2023/05/30 06:40:33;;;;;;;;;4.00;4.00;;;;;20.85;41.96;101495.89;110091;1265;21837;-38
2023/05/30 06:43:01;;;;;;;;;7.00;5.00;;;;;20.96;41.69;101500.30;110140;1250;19784;-38
2023/05/30 06:45:29;;;;;;;;;7.00;7.00;;;;;21.02;41.16;101504.23;110207;1251;21115;-38
2023/05/30 06:47:56;;;;;;;;;9.00;8.00;;;;;20.97;41.20;101504.80;110199;1251;22857;-39
2023/05/30 06:50:24;;;;;;;;;15.33;14.00;;;;;20.95;41.28;101508.77;110246;1265;22611;-37
2023/05/30 06:52:51;;;;;;;;;11.00;10.00;;;;;21.03;41.21;101510.13;110231;1265;19410;-38
2023/05/30 06:55:19;;;;;;;;;8.00;8.00;;;;;21.09;41.12;101508.66;110211;1265;20209;-38
2023/05/30 06:57:48;;;;;;;;;9.00;8.00;;;;;21.11;40.68;101510.95;110245;1265;21334;-38
2023/05/30 07:00:16;;;;;;;;;10.00;8.00;;;;;21.13;40.52;101507.52;110250;1265;23513;-42
2023/05/30 07:02:44;;;;;;;;;7.00;6.33;;;;;21.11;39.96;101505.70;110210;1266;21918;-38
2023/05/30 07:05:12;;;;;;;;;7.00;5.00;;;;;21.04;39.67;101503.84;110202;1251;19918;-38
2023/05/30 07:07:39;;;;;;;;;5.00;5.00;;;;;21.06;40.02;101496.58;110188;1251;20924;-38
2023/05/30 07:10:07;;;;;;;;;4.33;4.00;;;;;21.04;39.81;101498.62;110197;1265;21974;-38
2023/05/30 07:12:34;;;;;;;;;11.00;10.00;;;;;21.06;39.72;101497.70;110216;1251;19862;-38
2023/05/30 07:15:02;;;;;;;;;16.00;13.50;;;;;21.15;39.66;101488.52;110284;1250;23621;-38
2023/05/30 07:17:29;;;;;;;;;13.00;13.00;;;;;21.23;39.44;101492.60;110177;1265;21477;-38
2023/05/30 07:19:57;;;;;;;;;15.00;14.00;;;;;21.42;39.44;101494.23;110152;1265;20160;-37
2023/05/30 07:22:24;;;;;;;;;13.00;12.00;;;;;21.57;39.30;101495.93;110188;1266;19843;-38
2023/05/30 07:24:52;;;;;;;;;8.00;8.00;;;;;21.65;39.07;101493.27;110181;1251;22915;-37
2023/05/30 07:27:19;;;;;;;;;7.50;7.50;;;;;21.71;38.81;101495.71;110201;1250;19067;-37
2023/05/30 07:29:47;;;;;;;;;8.00;8.00;;;;;21.76;38.91;101496.63;110171;1265;20577;-38
2023/05/30 07:32:14;;;;;;;;;10.50;10.00;;;;;21.78;38.94;101493.66;110209;1251;21447;-37
2023/05/30 07:34:42;;;;;;;;;5.00;5.00;;;;;21.81;39.17;101492.39;110185;1265;19565;-37
2023/05/30 07:37:09;;;;;;;;;5.00;5.00;;;;;21.82;38.74;101488.63;110195;1265;21193;-37
2023/05/30 07:39:37;;;;;;;;;7.00;7.00;;;;;21.84;38.53;101496.98;110178;1265;21721;-38
2023/05/30 07:42:04;;;;;;;;;7.50;6.00;;;;;21.87;38.38;101497.06;110205;1250;19870;-37
2023/05/30 07:44:32;;;;;;;;;5.00;5.00;;;;;21.89;38.52;101503.39;110215;1265;21886;-37
2023/05/30 07:46:59;;;;;;;;;4.00;4.00;;;;;21.89;38.42;101502.30;110177;1265;20125;-37
2023/05/30 07:49:27;;;;;;;;;5.00;4.00;;;;;21.90;38.22;101503.25;110191;1265;23208;-38
2023/05/30 07:51:54;;;;;;;;;4.00;4.00;;;;;21.92;38.24;101503.45;110190;1250;19394;-38
2023/05/30 07:54:22;;;;;;;;;4.00;4.00;;;;;21.94;38.45;101502.51;110181;1260;21562;-44
2023/05/30 07:56:49;;;;;;;;;5.00;5.00;;;;;21.95;38.48;101502.89;110202;1265;19590;-39
2023/05/30 07:59:16;;;;;;;;;4.00;4.00;;;;;21.96;38.53;101501.77;110187;1251;20707;-38
2023/05/30 08:01:45;;;;;;;;;2.00;2.00;;;;;21.96;38.43;101504.27;110196;1265;20201;-38
2023/05/30 08:04:12;;;;;;;;;2.00;2.00;;;;;21.97;38.34;101503.30;110243;1265;20866;-40
2023/05/30 08:06:40;;;;;;;;;4.00;4.00;;;;;21.97;38.36;101505.11;110202;1265;21045;-38
2023/05/30 08:09:07;;;;;;;;;4.00;4.00;;;;;21.97;38.45;101505.99;110223;1266;20373;-38
2023/05/30 08:11:35;;;;;;;;;4.00;4.00;;;;;21.96;38.46;101506.45;110288;1257;24342;-38
2023/05/30 08:14:03;;;;;;;;;5.00;4.00;;;;;21.96;38.27;101508.11;110307;1250;20903;-38
2023/05/30 08:16:32;;;;;;;;;4.00;4.00;;;;;21.96;37.91;101508.14;110245;1265;21393;-38
2023/05/30 08:19:00;;;;;;;;;2.00;2.00;;;;;21.98;37.92;101504.77;110194;1260;21389;-38
2023/05/30 08:21:28;;;;;;;;;4.00;4.00;;;;;21.97;37.91;101509.95;110177;1251;23151;-37
2023/05/30 08:23:56;;;;;;;;;2.00;2.00;;;;;21.97;37.64;101511.38;110165;1251;23437;-37
2023/05/30 08:26:24;;;;;;;;;4.00;4.00;;;;;21.99;37.47;101510.87;110223;1265;20440;-37
2023/05/30 08:28:52;;;;;;;;;2.00;2.00;;;;;21.98;37.64;101509.64;110202;1265;19758;-38
2023/05/30 08:31:21;;;;;;;;;5.00;4.00;;;;;21.99;37.64;101507.53;110205;1250;21582;-38
2023/05/30 08:33:48;;;;;;;;;4.00;2.00;;;;;21.99;37.50;101511.35;110084;1265;21156;-37
2023/05/30 08:36:16;;;;;;;;;2.00;2.00;;;;;21.99;37.41;101511.04;110142;1265;20722;-38
2023/05/30 08:38:43;;;;;;;;;4.00;4.00;;;;;22.00;37.38;101511.32;110124;1251;20351;-37
2023/05/30 08:41:11;;;;;;;;;2.00;2.00;;;;;22.00;37.27;101516.06;110220;1251;19654;-38
2023/05/30 08:43:38;;;;;;;;;4.00;4.00;;;;;22.00;37.43;101516.20;110187;1265;21906;-39
2023/05/30 08:46:06;;;;;;;;;4.00;4.00;;;;;21.99;37.37;101514.46;110225;1265;20142;-39
2023/05/30 08:48:34;;;;;;;;;3.00;3.00;;;;;21.99;37.22;101518.69;110192;1260;23531;-39
2023/05/30 08:51:01;;;;;;;;;2.00;2.00;;;;;21.99;37.27;101513.36;110179;1265;19546;-38
2023/05/30 08:53:28;;;;;;;;;3.33;3.33;;;;;21.99;37.16;101511.77;110173;1251;21990;-39
2023/05/30 08:55:56;;;;;;;;;4.00;4.00;;;;;21.99;37.13;101510.46;110206;1251;19607;-38
2023/05/30 08:58:24;;;;;;;;;3.00;2.00;;;;;22.00;36.72;101516.52;110128;1251;20804;-38
2023/05/30 09:00:52;;;;;;;;;2.00;2.00;;;;;21.99;37.04;101513.27;110138;1250;23427;-38
2023/05/30 09:03:20;;;;;;;;;4.00;4.00;;;;;21.98;37.00;101507.89;110282;1265;22446;-38
2023/05/30 09:05:47;;;;;;;;;4.00;4.00;;;;;21.98;36.99;101514.84;110197;1265;21067;-38
2023/05/30 09:08:15;;;;;;;;;3.00;2.00;;;;;21.98;36.63;101510.19;110213;1266;21494;-38
2023/05/30 09:10:47;;;;;;;;;3.00;3.00;;;;;21.99;36.75;101511.02;110205;1265;19230;-38
2023/05/30 09:13:15;;;;;;;;;4.00;2.00;;;;;21.99;36.52;101511.41;110149;1265;20704;-38
2023/05/30 09:15:43;;;;;;;;;4.33;2.67;;;;;21.98;36.70;101512.58;110175;1251;21870;-38
2023/05/30 09:18:10;;;;;;;;;2.00;2.00;;;;;21.97;36.67;101512.34;110212;1250;19854;-39
2023/05/30 09:20:38;;;;;;;;;7.00;5.00;;;;;21.99;36.63;101514.45;110234;1257;24485;-39
2023/05/30 09:23:05;;;;;;;;;4.00;2.00;;;;;22.13;36.81;101520.34;110234;1251;21573;-39
2023/05/30 09:25:33;;;;;;;;;4.00;4.00;;;;;22.08;35.53;101524.12;110250;1250;20057;-39
2023/05/30 09:28:00;;;;;;;;;4.00;4.00;;;;;22.05;35.26;101534.41;110250;1251;24167;-39
2023/05/30 09:30:28;;;;;;;;;6.00;4.50;;;;;22.03;34.91;101529.35;110251;1265;19966;-39
2023/05/30 09:32:55;;;;;;;;;4.00;4.00;;;;;22.03;34.93;101527.89;110246;1251;19843;-39
2023/05/30 09:35:23;;;;;;;;;4.00;4.00;;;;;22.05;34.93;101524.92;110211;1265;23060;-39
2023/05/30 09:37:50;;;;;;;;;4.00;4.00;;;;;22.19;35.04;101524.75;110228;1265;21668;-37
2023/05/30 09:40:18;;;;;;;;;7.00;5.00;;;;;22.20;34.37;101526.63;110191;1249;19672;-40
2023/05/30 09:42:46;;;;;;;;;5.00;4.50;;;;;22.27;34.48;101526.77;110181;1257;24696;-40
2023/05/30 09:45:13;;;;;;;;;6.00;5.00;;;;;22.29;34.98;101527.26;110202;1249;23086;-39
2023/05/30 09:47:40;;;;;;;;;2.00;2.00;;;;;22.30;34.93;101530.13;110191;1250;19183;-40
2023/05/30 09:50:08;;;;;;;;;5.00;4.00;;;;;22.35;35.02;101532.23;110195;1265;21052;-39
2023/05/30 09:52:36;;;;;;;;;5.00;4.50;;;;;22.31;34.86;101530.30;110241;1251;21586;-41
2023/05/30 09:55:05;;;;;;;;;8.00;5.00;;;;;22.27;34.64;101528.73;110195;1265;19109;-39
2023/05/30 09:57:33;;;;;;;;;11.00;9.00;;;;;22.32;34.47;101529.52;110231;1266;21366;-38
2023/05/30 10:00:00;;;;;;;;;8.00;8.00;;;;;22.23;34.13;101529.06;110282;1265;21762;-40
2023/05/30 10:02:28;;;;;;;;;7.33;7.00;;;;;22.19;33.47;101530.38;110223;1251;19915;-39
2023/05/30 10:04:56;;;;;;;;;7.00;5.00;;;;;22.21;33.39;101530.66;110195;1257;19533;-39
2023/05/30 10:07:23;;;;;;;;;4.00;4.00;;;;;22.22;32.59;101524.79;110035;1265;22555;-40
2023/05/30 10:09:51;;;;;;;;;4.00;4.00;;;;;22.26;31.66;101528.70;110132;1266;19705;-39
2023/05/30 10:12:18;;;;;;;;;5.00;4.00;;;;;22.29;32.48;101531.13;110150;1251;20848;-39
2023/05/30 10:14:46;;;;;;;;;4.50;4.50;;;;;22.09;32.49;101529.92;110178;1251;21554;-39
2023/05/30 10:17:13;;;;;;;;;4.00;4.00;;;;;22.10;32.29;101536.77;110269;1251;23676;-39
2023/05/30 10:19:41;;;;;;;;;7.00;5.00;;;;;22.10;32.44;101530.45;110192;1251;20760;-39
2023/05/30 10:22:09;;;;;;;;;4.00;4.00;;;;;22.13;31.65;101533.89;110210;1265;20108;-39
2023/05/30 10:24:36;;;;;;;;;4.33;4.00;;;;;22.14;31.40;101535.69;110141;1251;19620;-41
2023/05/30 10:27:04;;;;;;;;;4.00;4.00;;;;;22.17;31.26;101533.70;110158;1265;21799;-39
2023/05/30 10:29:31;;;;;;;;;4.00;4.00;;;;;22.12;31.21;101531.80;110202;1265;21629;-40
2023/05/30 10:32:00;;;;;;;;;8.00;7.00;;;;;22.06;31.19;101531.44;110209;1251;19791;-39
2023/05/30 10:34:28;;;;;;;;;5.00;5.00;;;;;22.02;31.30;101532.19;110212;1265;20566;-39
2023/05/30 10:36:55;;;;;;;;;6.00;6.00;;;;;22.00;31.57;101526.38;110124;1265;21497;-39
2023/05/30 10:39:23;;;;;;;;;4.00;4.00;;;;;21.98;31.88;101529.38;110140;1251;22984;-40
2023/05/30 10:41:50;;;;;;;;;4.00;4.00;;;;;22.06;32.08;101530.84;110096;1251;21369;-40
2023/05/30 10:44:18;;;;;;;;;5.00;5.00;;;;;22.21;32.12;101525.64;110230;1251;21411;-40
2023/05/30 10:46:45;;;;;;;;;5.00;4.50;;;;;22.18;31.88;101525.23;110250;1251;19685;-42
2023/05/30 10:49:13;;;;;;;;;4.00;4.00;;;;;22.21;32.17;101527.82;110174;1266;23052;-40
2023/05/30 10:51:40;;;;;;;;;7.00;5.00;;;;;22.13;32.12;101520.13;110187;1265;22042;-40
2023/05/30 10:54:08;;;;;;;;;5.00;5.00;;;;;22.15;32.26;101522.08;110169;1251;20911;-40
2023/05/30 10:56:36;;;;;;;;;5.00;4.00;;;;;22.18;32.17;101522.84;110180;1265;23450;-40
2023/05/30 10:59:03;;;;;;;;;8.00;8.00;;;;;22.21;32.15;101521.38;110243;1265;21414;-39
2023/05/30 11:01:31;;;;;;;;;4.00;4.00;;;;;22.28;32.33;101522.23;110240;1265;23516;-43
2023/05/30 11:03:58;;;;;;;;;4.50;4.50;;;;;22.25;32.62;101522.98;110271;1265;20770;-39
2023/05/30 11:06:26;;;;;;;;;5.00;5.00;;;;;22.23;33.30;101520.80;110243;1265;20553;-42
2023/05/30 11:08:54;;;;;;;;;5.00;5.00;;;;;22.20;33.35;101518.77;110233;1265;23345;-39
2023/05/30 11:11:22;;;;;;;;;5.00;4.00;;;;;22.14;33.16;101518.77;110275;1251;20732;-40
2023/05/30 11:13:50;;;;;;;;;4.00;4.00;;;;;22.20;33.58;101524.07;110303;1265;23704;-39
2023/05/30 11:16:18;;;;;;;;;7.50;7.00;;;;;22.27;33.61;101518.20;110277;1265;19463;-39
2023/05/30 11:18:45;;;;;;;;;8.00;7.00;;;;;22.25;33.49;101517.93;110242;1265;21925;-39